createdAt,value
2023-12-15T05:06:24.460Z,100947.44
2023-12-15T05:12:30.983Z,100971.13
2023-12-15T05:18:33.887Z,100968.59
2023-12-15T05:24:37.462Z,100982.66
2023-12-15T05:30:41.533Z,100986.06
2023-12-15T05:36:43.674Z,101002.00
2023-12-15T05:42:47.325Z,100983.50
2023-12-15T05:48:49.768Z,101020.47
2023-12-15T05:54:53.419Z,101022.66
2023-12-15T06:00:59.051Z,101033.84
2023-12-15T06:07:05.720Z,101048.94
2023-12-15T06:13:08.104Z,101054.13
2023-12-15T06:19:12.070Z,101058.84
2023-12-15T06:25:15.152Z,101064.16
2023-12-15T06:31:18.441Z,101081.81
2023-12-15T06:37:20.789Z,101082.09
2023-12-15T06:43:26.393Z,101094.28
2023-12-15T06:49:38.739Z,101113.88
2023-12-15T07:15:15.020Z,101163.84
2023-12-15T07:21:58.642Z,101170.28
2023-12-15T07:28:44.228Z,101178.94
2023-12-15T07:42:05.579Z,101186.59
2023-12-15T07:48:18.395Z,101206.94
2023-12-15T07:54:27.946Z,101210.41
2023-12-15T08:14:07.160Z,101245.00
2023-12-15T08:27:09.531Z,101260.72
2023-12-15T08:33:37.497Z,101248.50
2023-12-15T08:39:42.974Z,101272.31
2023-12-15T09:00:28.596Z,101290.59
2023-12-15T09:49:06.072Z,101284.88
2023-12-15T10:31:22.108Z,101394.47
2023-12-15T10:38:23.850Z,101391.72
2023-12-15T10:51:12.138Z,101412.97
2023-12-15T10:58:02.765Z,101424.16
2023-12-15T11:04:57.701Z,101416.69
2023-12-15T11:11:10.490Z,101414.94
2023-12-15T11:17:45.059Z,101419.41
2023-12-15T11:24:54.554Z,101395.72
2023-12-15T11:39:12.146Z,101412.28
2023-12-15T11:59:48.963Z,101425.06
2023-12-15T13:55:30.774Z,101595.72
2023-12-15T14:01:58.013Z,101606.69
2023-12-15T14:14:35.347Z,101616.84
2023-12-15T14:28:05.798Z,101636.75
2023-12-15T14:40:58.901Z,101644.56
2023-12-15T14:47:17.453Z,101642.25
2023-12-15T14:53:47.884Z,101629.69
2023-12-15T14:59:52.994Z,101647.41
2023-12-15T15:18:55.910Z,101649.47
2023-12-15T15:25:09.047Z,101655.47
2023-12-15T15:31:22.796Z,101653.53
2023-12-15T15:37:31.859Z,101659.03
2023-12-15T15:43:39.600Z,101664.00
2023-12-15T15:49:43.333Z,101681.56
2023-12-15T15:55:59.562Z,101695.97
2023-12-15T16:08:40.288Z,101708.94
2023-12-15T16:14:55.804Z,101725.09
2023-12-15T16:21:31.294Z,101735.56
2023-12-15T16:28:07.346Z,101733.06
2023-12-15T17:15:48.383Z,101784.31
2023-12-15T17:22:22.015Z,101790.47
2023-12-15T17:28:37.217Z,101804.97
2023-12-15T17:35:00.162Z,101823.84
2023-12-15T17:41:37.879Z,101833.31
2023-12-15T17:47:57.230Z,101839.84
2023-12-15T17:54:20.602Z,101852.56
2023-12-15T18:00:58.950Z,101856.09
2023-12-15T18:07:17.005Z,101854.75
2023-12-15T18:20:37.266Z,101873.44
2023-12-15T18:27:01.151Z,101894.53
2023-12-15T18:33:13.533Z,101907.25
2023-12-15T18:39:31.291Z,101912.78
2023-12-15T18:52:18.331Z,101926.34
2023-12-15T18:58:39.444Z,101924.38
2023-12-15T19:04:57.395Z,101942.44
2023-12-15T19:11:14.630Z,101929.38
